Time;durP1;ratioP1;P1;durP2;ratioP2;P2;SDS_P1;SDS_P2;PMS_P1;PMS_P2;Temp;Humidity;BMP_temperature;BMP_pressure;BME280_temperature;BME280_humidity;BME280_pressure;Samples;Min_cycle;Max_cycle;Signal;HPM_P1;HPM_P2
2022/03/28 11:02:51;;;;;;;0.20;0.10;;;19.20;99.90;;;;;;25971894;22;1519118;-64
2022/03/28 11:13:15;;;;;;;0.20;0.03;;;20.00;99.90;;;;;;25813111;22;20564;-61
2022/03/28 11:23:20;;;;;;;0.20;0.10;;;20.00;99.90;;;;;;25344725;23;20192;-63
2022/03/28 11:33:29;;;;;;;0.67;0.63;;;20.40;99.90;;;;;;25395971;23;20168;-62
2022/03/28 11:43:40;;;;;;;5.80;5.50;;;21.40;99.90;;;;;;25398899;23;20198;-63
2022/03/28 11:53:44;;;;;;;0.20;0.03;;;21.10;99.90;;;;;;25395990;23;20156;-62
2022/03/28 12:03:52;;;;;;;0.20;0.10;;;22.20;99.90;;;;;;25393865;23;20206;-62
2022/03/28 12:13:56;;;;;;;0.20;0.10;;;21.30;99.90;;;;;;25395053;23;20192;-64
2022/03/28 12:24:07;;;;;;;0.20;0.10;;;20.40;99.90;;;;;;25393942;23;20222;-69
2022/03/28 12:34:11;;;;;;;0.20;0.10;;;20.60;99.90;;;;;;25383084;23;20167;-71
2022/03/28 12:44:18;;;;;;;0.20;0.10;;;20.50;99.90;;;;;;25388879;23;20199;-73
2022/03/28 12:54:23;;;;;;;0.20;0.10;;;20.40;99.90;;;;;;25392935;23;20219;-75
2022/03/28 13:04:29;;;;;;;0.20;0.10;;;20.80;99.90;;;;;;25415636;23;20203;-73
2022/03/28 13:14:33;;;;;;;0.20;0.00;;;22.60;99.90;;;;;;25415213;23;20190;-75
2022/03/28 13:24:40;;;;;;;2.28;2.17;;;23.30;99.90;;;;;;25394253;23;20239;-69
2022/03/28 13:34:44;;;;;;;0.20;0.10;;;23.50;99.90;;;;;;25390480;23;20280;-69
2022/03/28 13:44:50;;;;;;;0.20;0.20;;;22.90;99.90;;;;;;25393271;23;20183;-69
2022/03/28 13:54:54;;;;;;;0.20;0.10;;;21.50;99.90;;;;;;25413001;23;20182;-70
2022/03/28 14:05:01;;;;;;;1.03;0.93;;;21.60;99.90;;;;;;25391464;23;20199;-69
2022/03/28 14:15:06;;;;;;;0.20;0.10;;;22.80;99.90;;;;;;25389060;23;20187;-69
2022/03/28 14:25:15;;;;;;;0.20;0.00;;;22.70;99.90;;;;;;25389574;23;20188;-68
2022/03/28 14:35:19;;;;;;;1.23;1.23;;;23.60;99.90;;;;;;25390450;23;20427;-72
2022/03/28 14:45:25;;;;;;;0.40;0.27;;;23.30;99.90;;;;;;25419079;23;20222;-76
2022/03/28 14:55:28;;;;;;;0.20;0.10;;;23.60;99.90;;;;;;25398580;23;20175;-76
2022/03/28 15:05:35;;;;;;;0.63;0.63;;;23.10;99.90;;;;;;25417114;23;20207;-72
2022/03/28 15:15:39;;;;;;;1.53;1.43;;;23.30;99.90;;;;;;25391837;23;20203;-66
2022/03/28 15:25:45;;;;;;;0.20;0.10;;;23.20;99.90;;;;;;25394723;23;20192;-72
2022/03/28 15:35:50;;;;;;;0.20;0.03;;;22.80;99.90;;;;;;25390185;23;20172;-71
2022/03/28 15:45:56;;;;;;;0.20;0.10;;;22.50;99.90;;;;;;25391611;23;20187;-71
2022/03/28 15:56:00;;;;;;;0.50;0.50;;;22.60;99.90;;;;;;25388658;23;20172;-69
2022/03/28 16:06:05;;;;;;;0.20;0.03;;;21.10;99.90;;;;;;25393353;23;20203;-76
2022/03/28 16:16:09;;;;;;;1.30;0.63;;;20.10;99.90;;;;;;25389871;23;20198;-76
2022/03/28 16:26:15;;;;;;;0.20;0.10;;;19.50;99.90;;;;;;25392217;23;20502;-78
2022/03/28 16:36:19;;;;;;;0.20;0.10;;;18.80;99.90;;;;;;25385256;23;20172;-77
2022/03/28 16:46:25;;;;;;;0.20;0.10;;;18.60;99.90;;;;;;25387645;23;20219;-72
2022/03/28 16:56:29;;;;;;;0.20;0.10;;;18.50;99.90;;;;;;25385673;23;20250;-71
2022/03/28 17:06:35;;;;;;;0.20;0.10;;;18.00;99.90;;;;;;25381918;23;20298;-71
2022/03/28 17:16:39;;;;;;;0.20;0.10;;;17.70;99.90;;;;;;25384645;23;20259;-70
2022/03/28 17:26:44;;;;;;;0.20;0.10;;;17.30;99.90;;;;;;25380951;23;20180;-71
2022/03/28 17:36:48;;;;;;;0.20;0.10;;;16.60;99.90;;;;;;25382189;23;20227;-70
2022/03/28 17:46:54;;;;;;;0.20;0.10;;;16.20;99.90;;;;;;25382894;23;20250;-70
2022/03/28 17:56:58;;;;;;;0.50;0.50;;;15.80;99.90;;;;;;25388780;23;20431;-78
2022/03/28 18:07:03;;;;;;;0.20;0.10;;;15.60;99.90;;;;;;25391898;23;20208;-77
2022/03/28 18:17:07;;;;;;;0.20;0.10;;;15.40;99.90;;;;;;25410455;23;20260;-76
2022/03/28 18:27:13;;;;;;;0.20;0.10;;;15.00;99.90;;;;;;25433934;23;20199;-76
2022/03/28 18:37:16;;;;;;;0.20;0.20;;;15.00;99.90;;;;;;25410132;23;20379;-74
2022/03/28 18:47:22;;;;;;;0.20;0.10;;;14.90;99.90;;;;;;25420677;23;20243;-75
2022/03/28 18:57:26;;;;;;;0.20;0.00;;;14.70;99.90;;;;;;25393020;23;20172;-79
2022/03/28 19:07:32;;;;;;;0.20;0.10;;;14.70;99.90;;;;;;25399532;23;20195;-80
2022/03/28 19:17:35;;;;;;;0.20;0.10;;;14.50;99.90;;;;;;25402068;23;20187;-79
2022/03/28 19:27:42;;;;;;;0.20;0.10;;;14.10;99.90;;;;;;25402989;23;20250;-72
2022/03/28 19:37:46;;;;;;;0.20;0.00;;;13.90;99.90;;;;;;25398188;23;20164;-73
2022/03/28 19:47:51;;;;;;;0.20;0.10;;;13.80;99.90;;;;;;25399500;23;20202;-68
2022/03/28 19:57:55;;;;;;;0.20;0.10;;;13.40;99.90;;;;;;25399223;23;20168;-69
2022/03/28 20:08:01;;;;;;;0.20;0.10;;;13.50;99.90;;;;;;25400591;23;20207;-63
2022/03/28 20:18:05;;;;;;;0.20;0.10;;;13.40;99.90;;;;;;25398413;23;20188;-63
2022/03/28 20:28:11;;;;;;;0.63;0.63;;;13.20;99.90;;;;;;25399589;23;20267;-63
2022/03/28 20:38:15;;;;;;;0.20;0.10;;;12.90;99.90;;;;;;25398264;23;20171;-64
2022/03/28 20:48:21;;;;;;;0.73;0.73;;;13.00;99.90;;;;;;25397546;23;20201;-64
2022/03/28 20:58:25;;;;;;;0.20;0.10;;;13.10;99.90;;;;;;25395917;23;20730;-64
2022/03/28 21:08:30;;;;;;;0.20;0.00;;;13.00;99.90;;;;;;25396968;23;20200;-63
2022/03/28 21:18:35;;;;;;;0.20;0.10;;;12.90;99.90;;;;;;25399434;23;20241;-63
2022/03/28 21:28:40;;;;;;;0.20;0.10;;;13.10;99.90;;;;;;25397158;23;20191;-64
2022/03/28 21:38:45;;;;;;;0.20;0.10;;;12.80;99.90;;;;;;25397474;23;20168;-64
2022/03/28 21:48:51;;;;;;;0.20;0.10;;;12.40;99.90;;;;;;25392082;23;20191;-63
2022/03/28 21:58:55;;;;;;;0.20;0.10;;;12.30;99.90;;;;;;25391339;23;20166;-62
2022/03/28 22:09:00;;;;;;;1.47;1.40;;;12.40;99.90;;;;;;25390295;23;20231;-63
2022/03/28 22:19:04;;;;;;;0.20;0.10;;;12.30;99.90;;;;;;25391545;23;20618;-63
2022/03/28 22:29:09;;;;;;;0.20;0.10;;;12.20;99.90;;;;;;25388753;23;20192;-63
2022/03/28 22:39:13;;;;;;;0.20;0.10;;;12.20;99.90;;;;;;25391918;23;20448;-62
2022/03/28 22:49:18;;;;;;;0.20;0.10;;;12.00;99.90;;;;;;25388527;23;20255;-63
2022/03/28 22:59:22;;;;;;;0.20;0.10;;;12.10;99.90;;;;;;25392466;23;20187;-63
2022/03/28 23:09:27;;;;;;;0.20;0.10;;;12.10;99.90;;;;;;25398378;23;20227;-62
2022/03/28 23:19:31;;;;;;;2.23;2.13;;;12.20;99.90;;;;;;25397681;23;20191;-63
2022/03/28 23:29:36;;;;;;;0.20;0.10;;;12.30;99.90;;;;;;25398185;23;20219;-61
2022/03/28 23:39:40;;;;;;;0.20;0.10;;;12.20;99.90;;;;;;25396360;23;20240;-62
2022/03/28 23:49:45;;;;;;;0.20;0.07;;;12.30;99.90;;;;;;25422040;23;20211;-64
2022/03/28 23:59:49;;;;;;;0.20;0.10;;;12.10;99.90;;;;;;25396800;23;20194;-63
